sensor_id;sensor_type;location;lat;lon;timestamp;P1;durP1;ratioP1;P2;durP2;ratioP2
27491;SDS011;14927;51.210;6.838;2023-11-21T00:02:02;8.57;;;5.32;;
27491;SDS011;14927;51.210;6.838;2023-11-21T00:04:48;11.52;;;5.25;;
27491;SDS011;14927;51.210;6.838;2023-11-21T00:07:33;13.15;;;5.75;;
27491;SDS011;14927;51.210;6.838;2023-11-21T00:10:17;14.13;;;6.28;;
27491;SDS011;14927;51.210;6.838;2023-11-21T00:13:02;11.10;;;5.88;;
27491;SDS011;14927;51.210;6.838;2023-11-21T00:15:47;12.25;;;6.20;;
27491;SDS011;14927;51.210;6.838;2023-11-21T00:18:33;12.13;;;5.70;;
27491;SDS011;14927;51.210;6.838;2023-11-21T00:21:17;11.27;;;5.50;;
27491;SDS011;14927;51.210;6.838;2023-11-21T00:24:02;12.98;;;6.05;;
27491;SDS011;14927;51.210;6.838;2023-11-21T00:26:47;16.70;;;6.13;;
27491;SDS011;14927;51.210;6.838;2023-11-21T00:29:32;17.45;;;6.68;;
27491;SDS011;14927;51.210;6.838;2023-11-21T00:32:16;13.18;;;6.15;;
27491;SDS011;14927;51.210;6.838;2023-11-21T00:35:01;11.75;;;5.72;;
27491;SDS011;14927;51.210;6.838;2023-11-21T00:37:45;10.70;;;6.10;;
27491;SDS011;14927;51.210;6.838;2023-11-21T00:40:30;10.70;;;5.85;;
27491;SDS011;14927;51.210;6.838;2023-11-21T00:43:14;12.38;;;5.60;;
27491;SDS011;14927;51.210;6.838;2023-11-21T00:45:59;12.93;;;5.80;;
27491;SDS011;14927;51.210;6.838;2023-11-21T00:48:44;10.43;;;5.85;;
27491;SDS011;14927;51.210;6.838;2023-11-21T00:51:28;12.45;;;5.68;;
27491;SDS011;14927;51.210;6.838;2023-11-21T00:54:13;16.67;;;5.65;;
27491;SDS011;14927;51.210;6.838;2023-11-21T00:56:59;12.90;;;5.97;;
27491;SDS011;14927;51.210;6.838;2023-11-21T00:59:47;15.88;;;6.07;;
27491;SDS011;14927;51.210;6.838;2023-11-21T01:02:31;8.60;;;5.10;;
27491;SDS011;14927;51.210;6.838;2023-11-21T01:05:16;12.38;;;5.93;;
27491;SDS011;14927;51.210;6.838;2023-11-21T01:08:00;12.98;;;5.18;;
27491;SDS011;14927;51.210;6.838;2023-11-21T01:10:45;12.43;;;5.55;;
27491;SDS011;14927;51.210;6.838;2023-11-21T01:13:30;11.52;;;5.55;;
27491;SDS011;14927;51.210;6.838;2023-11-21T01:16:14;10.98;;;5.20;;
27491;SDS011;14927;51.210;6.838;2023-11-21T01:18:59;12.45;;;6.40;;
27491;SDS011;14927;51.210;6.838;2023-11-21T01:21:43;15.27;;;6.25;;
27491;SDS011;14927;51.210;6.838;2023-11-21T01:24:28;11.23;;;5.88;;
27491;SDS011;14927;51.210;6.838;2023-11-21T01:27:12;12.40;;;5.72;;
27491;SDS011;14927;51.210;6.838;2023-11-21T01:29:57;13.50;;;5.72;;
27491;SDS011;14927;51.210;6.838;2023-11-21T01:32:42;14.38;;;5.68;;
27491;SDS011;14927;51.210;6.838;2023-11-21T01:35:27;13.30;;;6.20;;
27491;SDS011;14927;51.210;6.838;2023-11-21T01:38:12;11.68;;;6.18;;
27491;SDS011;14927;51.210;6.838;2023-11-21T01:40:56;10.18;;;5.57;;
27491;SDS011;14927;51.210;6.838;2023-11-21T01:43:41;11.02;;;5.18;;
27491;SDS011;14927;51.210;6.838;2023-11-21T01:46:26;12.15;;;6.13;;
27491;SDS011;14927;51.210;6.838;2023-11-21T01:49:11;16.35;;;6.07;;
27491;SDS011;14927;51.210;6.838;2023-11-21T01:51:57;11.77;;;6.18;;
27491;SDS011;14927;51.210;6.838;2023-11-21T01:54:41;18.73;;;6.80;;
27491;SDS011;14927;51.210;6.838;2023-11-21T01:57:26;12.10;;;6.55;;
27491;SDS011;14927;51.210;6.838;2023-11-21T02:00:11;12.98;;;6.00;;
27491;SDS011;14927;51.210;6.838;2023-11-21T02:02:59;12.38;;;6.13;;
27491;SDS011;14927;51.210;6.838;2023-11-21T02:05:43;14.07;;;7.20;;
27491;SDS011;14927;51.210;6.838;2023-11-21T02:08:28;15.07;;;6.60;;
27491;SDS011;14927;51.210;6.838;2023-11-21T02:11:12;11.10;;;6.72;;
27491;SDS011;14927;51.210;6.838;2023-11-21T02:13:58;15.48;;;7.55;;
27491;SDS011;14927;51.210;6.838;2023-11-21T02:16:44;17.95;;;7.70;;
27491;SDS011;14927;51.210;6.838;2023-11-21T02:19:31;12.77;;;7.28;;
27491;SDS011;14927;51.210;6.838;2023-11-21T02:22:16;13.23;;;7.70;;
27491;SDS011;14927;51.210;6.838;2023-11-21T02:25:03;19.83;;;8.13;;
27491;SDS011;14927;51.210;6.838;2023-11-21T02:27:48;17.27;;;7.43;;
27491;SDS011;14927;51.210;6.838;2023-11-21T02:30:32;15.48;;;8.40;;
27491;SDS011;14927;51.210;6.838;2023-11-21T02:33:17;16.02;;;7.85;;
27491;SDS011;14927;51.210;6.838;2023-11-21T02:36:04;13.25;;;7.57;;
27491;SDS011;14927;51.210;6.838;2023-11-21T02:38:49;17.25;;;8.65;;
27491;SDS011;14927;51.210;6.838;2023-11-21T02:41:33;17.67;;;7.90;;
27491;SDS011;14927;51.210;6.838;2023-11-21T02:44:18;18.30;;;7.18;;
27491;SDS011;14927;51.210;6.838;2023-11-21T02:47:03;14.10;;;8.27;;
27491;SDS011;14927;51.210;6.838;2023-11-21T02:49:48;15.25;;;8.45;;
27491;SDS011;14927;51.210;6.838;2023-11-21T02:52:32;15.10;;;7.65;;
27491;SDS011;14927;51.210;6.838;2023-11-21T02:55:17;16.20;;;8.18;;
27491;SDS011;14927;51.210;6.838;2023-11-21T02:58:04;22.58;;;8.38;;
27491;SDS011;14927;51.210;6.838;2023-11-21T03:00:50;14.32;;;8.02;;
27491;SDS011;14927;51.210;6.838;2023-11-21T03:03:35;15.05;;;8.18;;
27491;SDS011;14927;51.210;6.838;2023-11-21T03:06:22;20.63;;;9.30;;
27491;SDS011;14927;51.210;6.838;2023-11-21T03:09:07;17.02;;;8.13;;
27491;SDS011;14927;51.210;6.838;2023-11-21T03:11:52;13.27;;;8.18;;
27491;SDS011;14927;51.210;6.838;2023-11-21T03:14:38;15.45;;;8.93;;
27491;SDS011;14927;51.210;6.838;2023-11-21T03:17:23;17.95;;;8.98;;
27491;SDS011;14927;51.210;6.838;2023-11-21T03:20:11;16.33;;;7.95;;
27491;SDS011;14927;51.210;6.838;2023-11-21T03:22:56;14.20;;;7.45;;
27491;SDS011;14927;51.210;6.838;2023-11-21T03:25:40;17.02;;;6.97;;
27491;SDS011;14927;51.210;6.838;2023-11-21T03:28:26;14.10;;;7.47;;
27491;SDS011;14927;51.210;6.838;2023-11-21T03:31:11;12.65;;;7.10;;
27491;SDS011;14927;51.210;6.838;2023-11-21T03:33:56;14.73;;;8.23;;
27491;SDS011;14927;51.210;6.838;2023-11-21T03:36:40;15.40;;;7.45;;
27491;SDS011;14927;51.210;6.838;2023-11-21T03:39:25;18.55;;;7.88;;
27491;SDS011;14927;51.210;6.838;2023-11-21T03:42:10;15.00;;;8.32;;
27491;SDS011;14927;51.210;6.838;2023-11-21T03:44:54;13.85;;;8.18;;
27491;SDS011;14927;51.210;6.838;2023-11-21T03:47:41;16.33;;;8.25;;
27491;SDS011;14927;51.210;6.838;2023-11-21T03:50:25;14.27;;;7.53;;
27491;SDS011;14927;51.210;6.838;2023-11-21T03:53:10;18.38;;;8.10;;
27491;SDS011;14927;51.210;6.838;2023-11-21T03:55:54;16.67;;;7.75;;
27491;SDS011;14927;51.210;6.838;2023-11-21T03:58:39;15.07;;;7.75;;
27491;SDS011;14927;51.210;6.838;2023-11-21T04:01:24;17.00;;;7.95;;
27491;SDS011;14927;51.210;6.838;2023-11-21T04:04:08;13.80;;;7.63;;
27491;SDS011;14927;51.210;6.838;2023-11-21T04:06:53;16.13;;;7.88;;
27491;SDS011;14927;51.210;6.838;2023-11-21T04:09:37;15.38;;;7.47;;
27491;SDS011;14927;51.210;6.838;2023-11-21T04:12:22;17.20;;;7.55;;
27491;SDS011;14927;51.210;6.838;2023-11-21T04:15:06;11.98;;;7.80;;
27491;SDS011;14927;51.210;6.838;2023-11-21T04:17:56;14.97;;;8.03;;
27491;SDS011;14927;51.210;6.838;2023-11-21T04:20:40;15.55;;;8.40;;
27491;SDS011;14927;51.210;6.838;2023-11-21T04:23:25;18.10;;;8.05;;
27491;SDS011;14927;51.210;6.838;2023-11-21T04:26:11;15.05;;;7.22;;
27491;SDS011;14927;51.210;6.838;2023-11-21T04:28:56;14.98;;;7.95;;
27491;SDS011;14927;51.210;6.838;2023-11-21T04:31:40;15.20;;;7.97;;
27491;SDS011;14927;51.210;6.838;2023-11-21T04:34:27;16.90;;;8.85;;
27491;SDS011;14927;51.210;6.838;2023-11-21T04:37:13;15.93;;;8.25;;
27491;SDS011;14927;51.210;6.838;2023-11-21T04:39:58;18.73;;;8.25;;
27491;SDS011;14927;51.210;6.838;2023-11-21T04:42:42;17.70;;;8.95;;
27491;SDS011;14927;51.210;6.838;2023-11-21T04:45:27;16.13;;;9.00;;
27491;SDS011;14927;51.210;6.838;2023-11-21T04:48:12;20.52;;;11.15;;
27491;SDS011;14927;51.210;6.838;2023-11-21T04:50:56;17.17;;;9.05;;
27491;SDS011;14927;51.210;6.838;2023-11-21T04:53:41;15.23;;;9.13;;
27491;SDS011;14927;51.210;6.838;2023-11-21T04:56:25;12.23;;;7.75;;
27491;SDS011;14927;51.210;6.838;2023-11-21T04:59:10;22.52;;;8.93;;
27491;SDS011;14927;51.210;6.838;2023-11-21T05:01:55;18.88;;;8.85;;
27491;SDS011;14927;51.210;6.838;2023-11-21T05:04:39;17.73;;;8.82;;
27491;SDS011;14927;51.210;6.838;2023-11-21T05:07:24;15.85;;;9.90;;
27491;SDS011;14927;51.210;6.838;2023-11-21T05:10:11;15.13;;;9.18;;
27491;SDS011;14927;51.210;6.838;2023-11-21T05:13:01;19.88;;;8.95;;
27491;SDS011;14927;51.210;6.838;2023-11-21T05:15:46;14.80;;;9.27;;
27491;SDS011;14927;51.210;6.838;2023-11-21T05:18:30;14.57;;;9.20;;
27491;SDS011;14927;51.210;6.838;2023-11-21T05:21:15;15.80;;;9.38;;
27491;SDS011;14927;51.210;6.838;2023-11-21T05:23:59;17.45;;;9.27;;
27491;SDS011;14927;51.210;6.838;2023-11-21T05:26:44;15.25;;;9.38;;
27491;SDS011;14927;51.210;6.838;2023-11-21T05:29:28;19.65;;;10.52;;
27491;SDS011;14927;51.210;6.838;2023-11-21T05:32:13;18.63;;;12.30;;
27491;SDS011;14927;51.210;6.838;2023-11-21T05:34:58;21.52;;;12.82;;
27491;SDS011;14927;51.210;6.838;2023-11-21T05:37:43;26.85;;;14.63;;
27491;SDS011;14927;51.210;6.838;2023-11-21T05:40:29;19.55;;;12.98;;
27491;SDS011;14927;51.210;6.838;2023-11-21T05:43:13;24.70;;;12.75;;
27491;SDS011;14927;51.210;6.838;2023-11-21T05:45:58;20.20;;;12.40;;
27491;SDS011;14927;51.210;6.838;2023-11-21T05:48:43;20.17;;;11.52;;
27491;SDS011;14927;51.210;6.838;2023-11-21T05:51:29;15.15;;;10.43;;
27491;SDS011;14927;51.210;6.838;2023-11-21T05:54:13;17.08;;;10.75;;
27491;SDS011;14927;51.210;6.838;2023-11-21T05:56:58;15.48;;;9.50;;
27491;SDS011;14927;51.210;6.838;2023-11-21T05:59:43;13.85;;;9.55;;
27491;SDS011;14927;51.210;6.838;2023-11-21T06:02:27;16.23;;;9.27;;
27491;SDS011;14927;51.210;6.838;2023-11-21T06:05:12;14.20;;;9.38;;
27491;SDS011;14927;51.210;6.838;2023-11-21T06:07:56;14.00;;;10.15;;
27491;SDS011;14927;51.210;6.838;2023-11-21T06:10:42;19.23;;;10.23;;
27491;SDS011;14927;51.210;6.838;2023-11-21T06:13:27;16.90;;;10.00;;
27491;SDS011;14927;51.210;6.838;2023-11-21T06:16:12;19.48;;;10.63;;
27491;SDS011;14927;51.210;6.838;2023-11-21T06:19:00;15.63;;;10.35;;
27491;SDS011;14927;51.210;6.838;2023-11-21T06:21:45;16.27;;;9.98;;
27491;SDS011;14927;51.210;6.838;2023-11-21T06:24:30;21.80;;;9.70;;
27491;SDS011;14927;51.210;6.838;2023-11-21T06:27:15;18.45;;;9.82;;
27491;SDS011;14927;51.210;6.838;2023-11-21T06:30:00;16.88;;;9.82;;
27491;SDS011;14927;51.210;6.838;2023-11-21T06:32:45;17.45;;;10.02;;
27491;SDS011;14927;51.210;6.838;2023-11-21T06:35:29;15.57;;;9.32;;
27491;SDS011;14927;51.210;6.838;2023-11-21T06:38:17;18.10;;;10.45;;
27491;SDS011;14927;51.210;6.838;2023-11-21T06:41:02;21.15;;;11.40;;
27491;SDS011;14927;51.210;6.838;2023-11-21T06:43:47;18.73;;;11.60;;
27491;SDS011;14927;51.210;6.838;2023-11-21T06:46:33;18.15;;;10.63;;
27491;SDS011;14927;51.210;6.838;2023-11-21T06:49:27;15.63;;;9.88;;
27491;SDS011;14927;51.210;6.838;2023-11-21T06:52:17;22.33;;;11.27;;
27491;SDS011;14927;51.210;6.838;2023-11-21T06:55:02;25.05;;;14.18;;
27491;SDS011;14927;51.210;6.838;2023-11-21T06:57:48;25.05;;;15.45;;
27491;SDS011;14927;51.210;6.838;2023-11-21T07:00:54;29.20;;;17.20;;
27491;SDS011;14927;51.210;6.838;2023-11-21T07:03:37;28.65;;;16.52;;
27491;SDS011;14927;51.210;6.838;2023-11-21T07:06:22;30.60;;;16.17;;
27491;SDS011;14927;51.210;6.838;2023-11-21T07:09:06;29.05;;;17.13;;
27491;SDS011;14927;51.210;6.838;2023-11-21T07:11:55;30.33;;;16.98;;
27491;SDS011;14927;51.210;6.838;2023-11-21T07:14:39;34.10;;;18.13;;
27491;SDS011;14927;51.210;6.838;2023-11-21T07:17:26;32.50;;;17.30;;
27491;SDS011;14927;51.210;6.838;2023-11-21T07:20:11;35.05;;;18.63;;
27491;SDS011;14927;51.210;6.838;2023-11-21T07:22:57;35.92;;;18.80;;
27491;SDS011;14927;51.210;6.838;2023-11-21T07:25:43;29.52;;;17.60;;
27491;SDS011;14927;51.210;6.838;2023-11-21T07:28:27;29.45;;;17.80;;
27491;SDS011;14927;51.210;6.838;2023-11-21T07:31:13;37.05;;;18.88;;
27491;SDS011;14927;51.210;6.838;2023-11-21T07:33:58;36.95;;;17.92;;
27491;SDS011;14927;51.210;6.838;2023-11-21T07:36:42;32.83;;;17.38;;
27491;SDS011;14927;51.210;6.838;2023-11-21T07:39:27;36.10;;;18.83;;
27491;SDS011;14927;51.210;6.838;2023-11-21T07:42:12;31.25;;;16.73;;
27491;SDS011;14927;51.210;6.838;2023-11-21T07:44:56;31.35;;;16.63;;
27491;SDS011;14927;51.210;6.838;2023-11-21T07:47:43;33.35;;;17.20;;
27491;SDS011;14927;51.210;6.838;2023-11-21T07:50:31;35.13;;;16.90;;
27491;SDS011;14927;51.210;6.838;2023-11-21T07:53:43;29.13;;;16.02;;
27491;SDS011;14927;51.210;6.838;2023-11-21T07:56:39;33.47;;;16.63;;
27491;SDS011;14927;51.210;6.838;2023-11-21T07:59:40;36.13;;;16.50;;
27491;SDS011;14927;51.210;6.838;2023-11-21T08:02:25;32.33;;;17.27;;
27491;SDS011;14927;51.210;6.838;2023-11-21T08:05:11;34.72;;;18.15;;
27491;SDS011;14927;51.210;6.838;2023-11-21T08:07:56;36.92;;;18.75;;
27491;SDS011;14927;51.210;6.838;2023-11-21T08:10:40;36.15;;;18.60;;
27491;SDS011;14927;51.210;6.838;2023-11-21T08:13:26;39.35;;;20.10;;
27491;SDS011;14927;51.210;6.838;2023-11-21T08:16:12;42.53;;;19.70;;
27491;SDS011;14927;51.210;6.838;2023-11-21T08:18:57;43.17;;;19.42;;
27491;SDS011;14927;51.210;6.838;2023-11-21T08:21:41;43.67;;;20.33;;
27491;SDS011;14927;51.210;6.838;2023-11-21T08:24:26;39.60;;;19.02;;
27491;SDS011;14927;51.210;6.838;2023-11-21T08:27:11;38.67;;;20.10;;
27491;SDS011;14927;51.210;6.838;2023-11-21T08:29:55;44.10;;;21.02;;
27491;SDS011;14927;51.210;6.838;2023-11-21T08:32:40;41.17;;;19.67;;
27491;SDS011;14927;51.210;6.838;2023-11-21T08:35:25;39.20;;;19.98;;
27491;SDS011;14927;51.210;6.838;2023-11-21T08:38:10;41.13;;;19.90;;
27491;SDS011;14927;51.210;6.838;2023-11-21T08:40:54;38.10;;;20.25;;
27491;SDS011;14927;51.210;6.838;2023-11-21T08:43:39;45.35;;;21.05;;
27491;SDS011;14927;51.210;6.838;2023-11-21T08:46:24;43.15;;;19.80;;
27491;SDS011;14927;51.210;6.838;2023-11-21T08:49:09;35.75;;;18.98;;
27491;SDS011;14927;51.210;6.838;2023-11-21T08:51:55;41.28;;;19.60;;
27491;SDS011;14927;51.210;6.838;2023-11-21T08:54:41;37.47;;;19.38;;
27491;SDS011;14927;51.210;6.838;2023-11-21T08:57:27;42.75;;;21.23;;
27491;SDS011;14927;51.210;6.838;2023-11-21T09:00:12;35.75;;;19.55;;
27491;SDS011;14927;51.210;6.838;2023-11-21T09:03:01;39.50;;;20.15;;
27491;SDS011;14927;51.210;6.838;2023-11-21T09:05:52;42.83;;;19.63;;
27491;SDS011;14927;51.210;6.838;2023-11-21T09:08:36;36.30;;;19.65;;
27491;SDS011;14927;51.210;6.838;2023-11-21T09:11:22;40.38;;;21.45;;
27491;SDS011;14927;51.210;6.838;2023-11-21T09:14:07;36.97;;;20.67;;
27491;SDS011;14927;51.210;6.838;2023-11-21T09:16:52;44.00;;;21.23;;
27491;SDS011;14927;51.210;6.838;2023-11-21T09:19:37;41.90;;;21.98;;
27491;SDS011;14927;51.210;6.838;2023-11-21T09:22:21;38.92;;;21.65;;
27491;SDS011;14927;51.210;6.838;2023-11-21T09:25:08;41.53;;;22.77;;
27491;SDS011;14927;51.210;6.838;2023-11-21T09:27:53;40.22;;;19.70;;
27491;SDS011;14927;51.210;6.838;2023-11-21T09:30:38;49.55;;;23.23;;
27491;SDS011;14927;51.210;6.838;2023-11-21T09:33:30;42.47;;;22.40;;
27491;SDS011;14927;51.210;6.838;2023-11-21T09:36:18;46.03;;;23.17;;
27491;SDS011;14927;51.210;6.838;2023-11-21T09:39:05;47.67;;;24.27;;
27491;SDS011;14927;51.210;6.838;2023-11-21T09:41:56;44.97;;;22.58;;
27491;SDS011;14927;51.210;6.838;2023-11-21T09:47:58;42.53;;;21.00;;
27491;SDS011;14927;51.210;6.838;2023-11-21T09:50:43;49.00;;;22.20;;
27491;SDS011;14927;51.210;6.838;2023-11-21T09:53:30;45.60;;;22.52;;
27491;SDS011;14927;51.210;6.838;2023-11-21T09:56:16;36.53;;;19.30;;
27491;SDS011;14927;51.210;6.838;2023-11-21T09:59:07;36.90;;;19.27;;
27491;SDS011;14927;51.210;6.838;2023-11-21T10:01:54;39.88;;;20.30;;
27491;SDS011;14927;51.210;6.838;2023-11-21T10:04:38;44.03;;;21.23;;
27491;SDS011;14927;51.210;6.838;2023-11-21T10:07:23;39.78;;;20.48;;
27491;SDS011;14927;51.210;6.838;2023-11-21T10:10:09;38.20;;;19.27;;
27491;SDS011;14927;51.210;6.838;2023-11-21T10:12:54;42.58;;;20.83;;
27491;SDS011;14927;51.210;6.838;2023-11-21T10:15:40;43.95;;;20.80;;
27491;SDS011;14927;51.210;6.838;2023-11-21T10:18:30;38.45;;;20.17;;
27491;SDS011;14927;51.210;6.838;2023-11-21T10:21:24;40.63;;;19.98;;
27491;SDS011;14927;51.210;6.838;2023-11-21T10:24:08;38.97;;;20.75;;
27491;SDS011;14927;51.210;6.838;2023-11-21T10:26:53;40.75;;;19.77;;
27491;SDS011;14927;51.210;6.838;2023-11-21T10:29:38;42.90;;;20.98;;
27491;SDS011;14927;51.210;6.838;2023-11-21T10:32:27;41.75;;;21.45;;
27491;SDS011;14927;51.210;6.838;2023-11-21T10:35:14;39.83;;;22.13;;
27491;SDS011;14927;51.210;6.838;2023-11-21T10:37:59;43.17;;;21.55;;
27491;SDS011;14927;51.210;6.838;2023-11-21T10:40:44;45.42;;;23.02;;
27491;SDS011;14927;51.210;6.838;2023-11-21T10:43:30;48.85;;;24.48;;
27491;SDS011;14927;51.210;6.838;2023-11-21T10:46:15;43.58;;;21.77;;
27491;SDS011;14927;51.210;6.838;2023-11-21T10:49:00;43.63;;;23.05;;
27491;SDS011;14927;51.210;6.838;2023-11-21T10:51:45;43.33;;;23.85;;
27491;SDS011;14927;51.210;6.838;2023-11-21T10:58:52;44.35;;;24.38;;
27491;SDS011;14927;51.210;6.838;2023-11-21T11:01:37;42.47;;;23.88;;
27491;SDS011;14927;51.210;6.838;2023-11-21T11:04:22;49.22;;;24.92;;
27491;SDS011;14927;51.210;6.838;2023-11-21T11:07:08;47.08;;;25.10;;
27491;SDS011;14927;51.210;6.838;2023-11-21T11:09:58;52.00;;;26.52;;
27491;SDS011;14927;51.210;6.838;2023-11-21T11:16:43;56.40;;;28.30;;
27491;SDS011;14927;51.210;6.838;2023-11-21T11:19:29;56.70;;;28.85;;
27491;SDS011;14927;51.210;6.838;2023-11-21T11:32:27;58.83;;;28.23;;
27491;SDS011;14927;51.210;6.838;2023-11-21T11:35:26;59.75;;;30.98;;
27491;SDS011;14927;51.210;6.838;2023-11-21T11:42:37;63.10;;;31.95;;
27491;SDS011;14927;51.210;6.838;2023-11-21T11:45:58;62.55;;;31.95;;
27491;SDS011;14927;51.210;6.838;2023-11-21T11:48:48;61.78;;;31.85;;
27491;SDS011;14927;51.210;6.838;2023-11-21T11:51:47;72.80;;;31.58;;
27491;SDS011;14927;51.210;6.838;2023-11-21T11:54:35;66.05;;;30.65;;
27491;SDS011;14927;51.210;6.838;2023-11-21T11:57:23;72.80;;;31.27;;
27491;SDS011;14927;51.210;6.838;2023-11-21T12:00:18;68.40;;;31.05;;
27491;SDS011;14927;51.210;6.838;2023-11-21T12:03:27;55.38;;;25.95;;
27491;SDS011;14927;51.210;6.838;2023-11-21T12:09:23;53.22;;;25.25;;
27491;SDS011;14927;51.210;6.838;2023-11-21T12:12:10;55.03;;;25.35;;
27491;SDS011;14927;51.210;6.838;2023-11-21T12:14:55;51.75;;;25.45;;
27491;SDS011;14927;51.210;6.838;2023-11-21T12:17:41;56.97;;;27.23;;
27491;SDS011;14927;51.210;6.838;2023-11-21T12:20:27;57.67;;;27.63;;
27491;SDS011;14927;51.210;6.838;2023-11-21T12:23:22;56.50;;;26.27;;
27491;SDS011;14927;51.210;6.838;2023-11-21T12:26:06;60.78;;;27.10;;
27491;SDS011;14927;51.210;6.838;2023-11-21T12:28:52;53.47;;;26.40;;
27491;SDS011;14927;51.210;6.838;2023-11-21T12:31:40;58.03;;;26.27;;
27491;SDS011;14927;51.210;6.838;2023-11-21T12:34:27;60.47;;;27.92;;
27491;SDS011;14927;51.210;6.838;2023-11-21T12:37:56;45.53;;;23.40;;
27491;SDS011;14927;51.210;6.838;2023-11-21T12:40:41;47.30;;;23.90;;
27491;SDS011;14927;51.210;6.838;2023-11-21T12:43:25;53.88;;;23.17;;
27491;SDS011;14927;51.210;6.838;2023-11-21T12:46:10;52.90;;;22.88;;
27491;SDS011;14927;51.210;6.838;2023-11-21T12:48:57;53.80;;;22.80;;
27491;SDS011;14927;51.210;6.838;2023-11-21T12:51:45;50.35;;;24.15;;
27491;SDS011;14927;51.210;6.838;2023-11-21T12:54:30;49.92;;;22.92;;
27491;SDS011;14927;51.210;6.838;2023-11-21T12:57:14;53.85;;;22.95;;
27491;SDS011;14927;51.210;6.838;2023-11-21T12:59:59;51.00;;;22.35;;
27491;SDS011;14927;51.210;6.838;2023-11-21T13:02:46;48.08;;;22.63;;
27491;SDS011;14927;51.210;6.838;2023-11-21T13:05:33;49.45;;;23.50;;
27491;SDS011;14927;51.210;6.838;2023-11-21T13:08:23;49.70;;;22.65;;
27491;SDS011;14927;51.210;6.838;2023-11-21T13:11:09;53.88;;;23.13;;
27491;SDS011;14927;51.210;6.838;2023-11-21T13:13:54;51.53;;;24.40;;
27491;SDS011;14927;51.210;6.838;2023-11-21T13:16:40;47.90;;;24.60;;
27491;SDS011;14927;51.210;6.838;2023-11-21T13:19:30;50.42;;;23.45;;
27491;SDS011;14927;51.210;6.838;2023-11-21T13:22:15;47.83;;;23.67;;
27491;SDS011;14927;51.210;6.838;2023-11-21T13:24:59;51.08;;;23.30;;
27491;SDS011;14927;51.210;6.838;2023-11-21T13:27:44;44.42;;;22.80;;
27491;SDS011;14927;51.210;6.838;2023-11-21T13:30:30;57.42;;;24.95;;
27491;SDS011;14927;51.210;6.838;2023-11-21T13:33:42;52.42;;;24.42;;
27491;SDS011;14927;51.210;6.838;2023-11-21T13:37:05;59.15;;;26.30;;
27491;SDS011;14927;51.210;6.838;2023-11-21T13:39:51;60.95;;;26.85;;
27491;SDS011;14927;51.210;6.838;2023-11-21T13:42:36;60.28;;;26.83;;
27491;SDS011;14927;51.210;6.838;2023-11-21T13:45:21;59.25;;;26.65;;
27491;SDS011;14927;51.210;6.838;2023-11-21T13:48:06;56.80;;;26.20;;
27491;SDS011;14927;51.210;6.838;2023-11-21T13:50:57;58.10;;;28.63;;
27491;SDS011;14927;51.210;6.838;2023-11-21T13:53:45;59.38;;;29.92;;
27491;SDS011;14927;51.210;6.838;2023-11-21T13:56:38;63.75;;;30.05;;
27491;SDS011;14927;51.210;6.838;2023-11-21T13:59:24;59.22;;;29.42;;
27491;SDS011;14927;51.210;6.838;2023-11-21T14:02:11;72.97;;;32.05;;
27491;SDS011;14927;51.210;6.838;2023-11-21T14:05:03;69.55;;;31.02;;
27491;SDS011;14927;51.210;6.838;2023-11-21T14:07:52;60.72;;;30.75;;
27491;SDS011;14927;51.210;6.838;2023-11-21T14:10:37;64.10;;;31.15;;
27491;SDS011;14927;51.210;6.838;2023-11-21T14:13:27;69.20;;;32.88;;
27491;SDS011;14927;51.210;6.838;2023-11-21T14:16:11;59.58;;;28.67;;
27491;SDS011;14927;51.210;6.838;2023-11-21T14:18:57;55.20;;;26.77;;
27491;SDS011;14927;51.210;6.838;2023-11-21T14:21:53;50.42;;;24.40;;
27491;SDS011;14927;51.210;6.838;2023-11-21T14:24:38;41.90;;;21.45;;
27491;SDS011;14927;51.210;6.838;2023-11-21T14:27:27;35.63;;;17.75;;
27491;SDS011;14927;51.210;6.838;2023-11-21T14:30:13;32.03;;;16.55;;
27491;SDS011;14927;51.210;6.838;2023-11-21T14:32:58;34.67;;;17.70;;
27491;SDS011;14927;51.210;6.838;2023-11-21T14:35:44;27.60;;;16.20;;
27491;SDS011;14927;51.210;6.838;2023-11-21T14:38:30;28.98;;;17.63;;
27491;SDS011;14927;51.210;6.838;2023-11-21T14:41:15;26.63;;;14.32;;
27491;SDS011;14927;51.210;6.838;2023-11-21T14:44:01;23.42;;;14.05;;
27491;SDS011;14927;51.210;6.838;2023-11-21T14:46:54;20.33;;;11.88;;
27491;SDS011;14927;51.210;6.838;2023-11-21T14:49:41;24.10;;;11.25;;
27491;SDS011;14927;51.210;6.838;2023-11-21T14:52:53;22.95;;;12.18;;
27491;SDS011;14927;51.210;6.838;2023-11-21T14:55:40;18.63;;;10.85;;
27491;SDS011;14927;51.210;6.838;2023-11-21T14:58:34;17.30;;;10.98;;
27491;SDS011;14927;51.210;6.838;2023-11-21T15:01:20;15.48;;;10.65;;
27491;SDS011;14927;51.210;6.838;2023-11-21T15:04:18;16.52;;;9.98;;
27491;SDS011;14927;51.210;6.838;2023-11-21T15:07:20;14.95;;;9.98;;
27491;SDS011;14927;51.210;6.838;2023-11-21T15:10:04;14.50;;;10.00;;
27491;SDS011;14927;51.210;6.838;2023-11-21T15:12:54;13.50;;;9.43;;
27491;SDS011;14927;51.210;6.838;2023-11-21T15:15:39;14.73;;;10.70;;
27491;SDS011;14927;51.210;6.838;2023-11-21T15:18:25;20.73;;;12.50;;
27491;SDS011;14927;51.210;6.838;2023-11-21T15:21:10;16.05;;;11.63;;
27491;SDS011;14927;51.210;6.838;2023-11-21T15:23:55;18.10;;;11.75;;
27491;SDS011;14927;51.210;6.838;2023-11-21T15:26:40;19.73;;;14.05;;
27491;SDS011;14927;51.210;6.838;2023-11-21T15:29:24;16.92;;;12.40;;
27491;SDS011;14927;51.210;6.838;2023-11-21T15:32:10;19.40;;;12.75;;
27491;SDS011;14927;51.210;6.838;2023-11-21T15:34:55;16.25;;;12.57;;
27491;SDS011;14927;51.210;6.838;2023-11-21T15:37:44;16.02;;;12.48;;
27491;SDS011;14927;51.210;6.838;2023-11-21T15:40:34;17.15;;;12.13;;
27491;SDS011;14927;51.210;6.838;2023-11-21T15:43:21;17.25;;;12.52;;
27491;SDS011;14927;51.210;6.838;2023-11-21T15:46:11;17.10;;;12.70;;
27491;SDS011;14927;51.210;6.838;2023-11-21T15:52:16;17.63;;;11.48;;
27491;SDS011;14927;51.210;6.838;2023-11-21T15:55:58;14.55;;;10.68;;
27491;SDS011;14927;51.210;6.838;2023-11-21T15:59:21;12.98;;;9.98;;
27491;SDS011;14927;51.210;6.838;2023-11-21T16:02:36;12.00;;;8.98;;
27491;SDS011;14927;51.210;6.838;2023-11-21T16:05:41;11.15;;;9.00;;
27491;SDS011;14927;51.210;6.838;2023-11-21T16:08:25;13.32;;;8.77;;
27491;SDS011;14927;51.210;6.838;2023-11-21T16:11:10;13.23;;;8.80;;
27491;SDS011;14927;51.210;6.838;2023-11-21T16:13:55;11.05;;;7.68;;
27491;SDS011;14927;51.210;6.838;2023-11-21T16:20:15;9.35;;;7.07;;
27491;SDS011;14927;51.210;6.838;2023-11-21T16:23:03;9.52;;;7.10;;
27491;SDS011;14927;51.210;6.838;2023-11-21T16:25:47;9.43;;;7.22;;
27491;SDS011;14927;51.210;6.838;2023-11-21T16:28:38;8.48;;;6.90;;
27491;SDS011;14927;51.210;6.838;2023-11-21T16:31:25;9.73;;;6.72;;
27491;SDS011;14927;51.210;6.838;2023-11-21T16:34:13;8.65;;;6.78;;
27491;SDS011;14927;51.210;6.838;2023-11-21T16:37:01;10.20;;;6.95;;
27491;SDS011;14927;51.210;6.838;2023-11-21T16:39:50;8.10;;;6.57;;
27491;SDS011;14927;51.210;6.838;2023-11-21T16:42:41;7.80;;;6.43;;
27491;SDS011;14927;51.210;6.838;2023-11-21T16:45:28;8.85;;;6.32;;
27491;SDS011;14927;51.210;6.838;2023-11-21T16:48:25;7.65;;;6.43;;
27491;SDS011;14927;51.210;6.838;2023-11-21T16:51:09;7.72;;;5.90;;
27491;SDS011;14927;51.210;6.838;2023-11-21T16:54:03;6.22;;;5.45;;
27491;SDS011;14927;51.210;6.838;2023-11-21T16:56:52;9.73;;;6.60;;
27491;SDS011;14927;51.210;6.838;2023-11-21T16:59:37;8.50;;;6.47;;
27491;SDS011;14927;51.210;6.838;2023-11-21T17:02:25;8.63;;;7.20;;